Time,TemperatureF,DewpointF,PressureIn,WindDirection,WindDirectionDegrees,WindSpeedMPH,WindSpeedGustMPH,Humidity,HourlyPrecipIn,Conditions,Clouds,dailyrainin,SoftwareType,DateUTC
2013-04-27 00:06:00,53.7,38.0,30.12,SW,232,0.0,0.0,56,0.00,,,0.00,weatherlink.com 1.10,2013-04-27 05:06:00,
2013-04-27 00:21:00,51.4,37.0,30.12,SW,232,0.0,1.0,59,0.00,,,0.00,weatherlink.com 1.10,2013-04-27 05:21:00,
2013-04-27 00:36:00,50.5,38.0,30.12,SW,232,0.0,0.0,62,0.00,,,0.00,weatherlink.com 1.10,2013-04-27 05:36:00,
2013-04-27 00:51:00,49.6,36.0,30.12,SW,232,0.0,0.0,61,0.00,,,0.00,weatherlink.com 1.10,2013-04-27 05:51:00,
2013-04-27 01:06:00,48.7,36.0,30.12,SW,232,0.0,0.0,63,0.00,,,0.00,weatherlink.com 1.10,2013-04-27 06:06:00,
2013-04-27 01:21:00,48.3,38.0,30.12,SW,232,0.0,0.0,67,0.00,,,0.00,weatherlink.com 1.10,2013-04-27 06:21:00,
2013-04-27 01:36:00,47.8,38.0,30.12,SW,232,0.0,0.0,70,0.00,,,0.00,weatherlink.com 1.10,2013-04-27 06:36:00,
2013-04-27 01:51:00,47.5,38.0,30.12,SW,232,0.0,0.0,70,0.00,,,0.00,weatherlink.com 1.10,2013-04-27 06:51:00,
2013-04-27 02:07:00,47.0,38.0,30.11,SW,232,0.0,0.0,72,0.00,,,0.00,weatherlink.com 1.10,2013-04-27 07:07:00,
2013-04-27 02:22:00,46.2,38.0,30.11,SW,232,0.0,0.0,73,0.00,,,0.00,weatherlink.com 1.10,2013-04-27 07:22:00,
2013-04-27 02:37:00,45.5,37.0,30.10,SW,232,0.0,0.0,72,0.00,,,0.00,weatherlink.com 1.10,2013-04-27 07:37:00,
2013-04-27 02:52:00,44.9,37.0,30.10,SE,135,0.0,0.0,74,0.00,,,0.00,weatherlink.com 1.10,2013-04-27 07:52:00,
2013-04-27 03:07:00,43.7,37.0,30.11,SE,134,0.0,1.0,78,0.00,,,0.00,weatherlink.com 1.10,2013-04-27 08:07:00,
2013-04-27 03:22:00,43.3,38.0,30.11,SE,139,0.0,0.0,80,0.00,,,0.00,weatherlink.com 1.10,2013-04-27 08:22:00,
2013-04-27 03:37:00,42.5,37.0,30.10,SE,139,0.0,0.0,81,0.00,,,0.00,weatherlink.com 1.10,2013-04-27 08:37:00,
2013-04-27 03:52:00,42.1,37.0,30.11,SE,139,0.0,0.0,81,0.00,,,0.00,weatherlink.com 1.10,2013-04-27 08:52:00,
2013-04-27 04:07:00,42.0,37.0,30.10,SE,139,0.0,0.0,82,0.00,,,0.00,weatherlink.com 1.10,2013-04-27 09:07:00,
2013-04-27 04:22:00,41.5,36.0,30.10,SE,139,0.0,0.0,82,0.00,,,0.00,weatherlink.com 1.10,2013-04-27 09:22:00,
2013-04-27 04:37:00,41.4,37.0,30.10,SE,139,0.0,1.0,83,0.00,,,0.00,weatherlink.com 1.10,2013-04-27 09:37:00,
2013-04-27 04:52:00,41.1,36.0,30.09,SE,141,0.0,1.0,83,0.00,,,0.00,weatherlink.com 1.10,2013-04-27 09:52:00,
2013-04-27 05:07:00,40.3,36.0,30.09,SE,141,0.0,0.0,84,0.00,,,0.00,weatherlink.com 1.10,2013-04-27 10:07:00,
2013-04-27 05:22:00,40.1,36.0,30.09,SE,141,0.0,0.0,85,0.00,,,0.00,weatherlink.com 1.10,2013-04-27 10:22:00,
2013-04-27 05:37:00,39.4,35.0,30.09,ENE,74,0.0,3.0,85,0.00,,,0.00,weatherlink.com 1.10,2013-04-27 10:37:00,
2013-04-27 05:52:00,39.8,36.0,30.09,ENE,74,0.0,0.0,85,0.00,,,0.00,weatherlink.com 1.10,2013-04-27 10:52:00,
2013-04-27 06:07:00,39.3,35.0,30.09,ENE,74,0.0,0.0,85,0.00,,,0.00,weatherlink.com 1.10,2013-04-27 11:07:00,
2013-04-27 06:22:00,38.8,35.0,30.09,ENE,74,0.0,0.0,87,0.00,,,0.00,weatherlink.com 1.10,2013-04-27 11:22:00,
2013-04-27 06:37:00,38.8,36.0,30.08,ENE,74,0.0,0.0,88,0.00,,,0.00,weatherlink.com 1.10,2013-04-27 11:37:00,
2013-04-27 06:52:00,40.1,37.0,30.08,ENE,74,0.0,0.0,87,0.00,,,0.00,weatherlink.com 1.10,2013-04-27 11:52:00,
2013-04-27 07:07:00,41.6,37.0,30.08,ENE,74,0.0,0.0,84,0.00,,,0.00,weatherlink.com 1.10,2013-04-27 12:07:00,
2013-04-27 07:22:00,41.8,38.0,30.09,ENE,69,0.0,2.0,85,0.00,,,0.00,weatherlink.com 1.10,2013-04-27 12:22:00,
2013-04-27 07:37:00,43.2,39.0,30.09,ENE,69,0.0,1.0,86,0.00,,,0.00,weatherlink.com 1.10,2013-04-27 12:37:00,
2013-04-27 07:52:00,45.6,40.0,30.09,ENE,69,0.0,1.0,82,0.00,,,0.00,weatherlink.com 1.10,2013-04-27 12:52:00,
2013-04-27 08:07:00,48.3,40.0,30.09,NE,54,1.0,3.0,74,0.00,,,0.00,weatherlink.com 1.10,2013-04-27 13:07:00,
2013-04-27 08:22:00,51.3,41.0,30.09,ENE,59,0.0,2.0,67,0.00,,,0.00,weatherlink.com 1.10,2013-04-27 13:22:00,
2013-04-27 08:37:00,54.2,41.0,30.09,ENE,71,1.0,3.0,61,0.00,,,0.00,weatherlink.com 1.10,2013-04-27 13:37:00,
2013-04-27 08:52:00,56.0,40.0,30.09,East,87,0.0,2.0,55,0.00,,,0.00,weatherlink.com 1.10,2013-04-27 13:52:00,
2013-04-27 09:07:00,56.9,40.0,30.08,ENE,61,1.0,3.0,53,0.00,,,0.00,weatherlink.com 1.10,2013-04-27 14:07:00,
2013-04-27 09:22:00,58.5,40.0,30.08,East,79,2.0,4.0,51,0.00,,,0.00,weatherlink.com 1.10,2013-04-27 14:22:00,
2013-04-27 09:38:00,59.7,40.0,30.09,ENE,69,2.0,4.0,48,0.00,,,0.00,weatherlink.com 1.10,2013-04-27 14:38:00,
2013-04-27 09:53:00,60.8,41.0,30.09,ENE,63,0.0,4.0,49,0.00,,,0.00,weatherlink.com 1.10,2013-04-27 14:53:00,
2013-04-27 10:08:00,61.8,41.0,30.08,NE,50,0.0,3.0,47,0.00,,,0.00,weatherlink.com 1.10,2013-04-27 15:08:00,
2013-04-27 10:23:00,63.0,43.0,30.08,NE,50,1.0,4.0,48,0.00,,,0.00,weatherlink.com 1.10,2013-04-27 15:23:00,
2013-04-27 10:38:00,64.1,43.0,30.08,ENE,64,1.0,4.0,46,0.00,,,0.00,weatherlink.com 1.10,2013-04-27 15:38:00,
2013-04-27 10:53:00,64.4,42.0,30.08,NE,53,4.0,5.0,44,0.00,,,0.00,weatherlink.com 1.10,2013-04-27 15:53:00,
2013-04-27 11:08:00,65.5,42.0,30.07,ENE,59,3.0,5.0,42,0.00,,,0.00,weatherlink.com 1.10,2013-04-27 16:08:00,
2013-04-27 11:23:00,65.4,42.0,30.07,ENE,73,0.0,4.0,43,0.00,,,0.00,weatherlink.com 1.10,2013-04-27 16:23:00,
2013-04-27 11:38:00,66.3,44.0,30.07,South,185,1.0,5.0,44,0.00,,,0.00,weatherlink.com 1.10,2013-04-27 16:38:00,
2013-04-27 11:53:00,66.4,42.0,30.06,NE,53,4.0,5.0,41,0.00,,,0.00,weatherlink.com 1.10,2013-04-27 16:53:00,
2013-04-27 12:08:00,67.8,43.0,30.06,ENE,63,2.0,5.0,40,0.00,,,0.00,weatherlink.com 1.10,2013-04-27 17:08:00,
2013-04-27 12:23:00,67.9,42.0,30.05,NW,324,1.0,6.0,39,0.00,,,0.00,weatherlink.com 1.10,2013-04-27 17:23:00,
2013-04-27 12:38:00,68.8,42.0,30.05,NE,55,3.0,5.0,38,0.00,,,0.00,weatherlink.com 1.10,2013-04-27 17:38:00,
2013-04-27 12:53:00,69.2,40.0,30.04,East,101,0.0,7.0,35,0.00,,,0.00,weatherlink.com 1.10,2013-04-27 17:53:00,
2013-04-27 13:08:00,69.6,40.0,30.03,ENE,69,2.0,5.0,34,0.00,,,0.00,weatherlink.com 1.10,2013-04-27 18:08:00,
2013-04-27 13:23:00,70.4,40.0,30.02,SW,231,0.0,5.0,33,0.00,,,0.00,weatherlink.com 1.10,2013-04-27 18:23:00,
2013-04-27 13:38:00,71.2,39.0,30.02,NE,46,4.0,9.0,31,0.00,,,0.00,weatherlink.com 1.10,2013-04-27 18:38:00,
2013-04-27 13:53:00,71.3,40.0,30.01,ENE,57,4.0,7.0,32,0.00,,,0.00,weatherlink.com 1.10,2013-04-27 18:53:00,
2013-04-27 14:08:00,71.7,38.0,30.00,East,80,0.0,7.0,29,0.00,,,0.00,weatherlink.com 1.10,2013-04-27 19:08:00,
2013-04-27 14:23:00,72.4,40.0,29.99,NE,48,4.0,5.0,31,0.00,,,0.00,weatherlink.com 1.10,2013-04-27 19:23:00,
2013-04-27 14:38:00,72.4,41.0,29.98,NE,53,0.0,7.0,32,0.00,,,0.00,weatherlink.com 1.10,2013-04-27 19:38:00,
2013-04-27 14:54:00,73.6,41.0,29.98,East,84,2.0,6.0,31,0.00,,,0.00,weatherlink.com 1.10,2013-04-27 19:54:00,
2013-04-27 15:09:00,73.1,41.0,29.98,SSW,211,1.0,9.0,31,0.00,,,0.00,weatherlink.com 1.10,2013-04-27 20:09:00,
2013-04-27 15:24:00,73.5,42.0,29.97,ENE,76,3.0,7.0,32,0.00,,,0.00,weatherlink.com 1.10,2013-04-27 20:24:00,
2013-04-27 15:39:00,73.8,40.0,29.96,ENE,63,4.0,7.0,30,0.00,,,0.00,weatherlink.com 1.10,2013-04-27 20:39:00,
2013-04-27 15:54:00,73.6,40.0,29.96,ENE,70,4.0,9.0,30,0.00,,,0.00,weatherlink.com 1.10,2013-04-27 20:54:00,
2013-04-27 16:09:00,73.7,41.0,29.95,SE,127,0.0,7.0,31,0.00,,,0.00,weatherlink.com 1.10,2013-04-27 21:09:00,
2013-04-27 16:24:00,73.7,39.0,29.95,NE,49,2.0,8.0,29,0.00,,,0.00,weatherlink.com 1.10,2013-04-27 21:24:00,
2013-04-27 16:39:00,74.3,39.0,29.94,SSE,147,1.0,10.0,28,0.00,,,0.00,weatherlink.com 1.10,2013-04-27 21:39:00,
2013-04-27 16:54:00,74.1,40.0,29.94,ENE,70,1.0,8.0,29,0.00,,,0.00,weatherlink.com 1.10,2013-04-27 21:54:00,
2013-04-27 17:09:00,74.4,40.0,29.93,South,172,1.0,8.0,29,0.00,,,0.00,weatherlink.com 1.10,2013-04-27 22:09:00,
2013-04-27 17:24:00,74.6,40.0,29.93,ESE,123,1.0,5.0,29,0.00,,,0.00,weatherlink.com 1.10,2013-04-27 22:24:00,
2013-04-27 17:39:00,74.3,40.0,29.92,East,82,2.0,7.0,29,0.00,,,0.00,weatherlink.com 1.10,2013-04-27 22:39:00,
2013-04-27 17:54:00,74.7,39.0,29.92,SSE,150,1.0,9.0,28,0.00,,,0.00,weatherlink.com 1.10,2013-04-27 22:54:00,
2013-04-27 18:09:00,74.8,40.0,29.92,SE,138,2.0,5.0,29,0.00,,,0.00,weatherlink.com 1.10,2013-04-27 23:09:00,
2013-04-27 18:24:00,74.9,40.0,29.91,SSW,196,2.0,4.0,28,0.00,,,0.00,weatherlink.com 1.10,2013-04-27 23:24:00,
2013-04-27 18:39:00,73.9,39.0,29.91,South,171,0.0,4.0,28,0.00,,,0.00,weatherlink.com 1.10,2013-04-27 23:39:00,
2013-04-27 18:54:00,73.3,39.0,29.91,NE,49,2.0,4.0,29,0.00,,,0.00,weatherlink.com 1.10,2013-04-27 23:54:00,
2013-04-27 19:09:00,72.6,40.0,29.90,ENE,72,3.0,7.0,31,0.00,,,0.00,weatherlink.com 1.10,2013-04-28 00:09:00,
2013-04-27 19:24:00,71.6,42.0,29.90,ENE,71,0.0,4.0,34,0.00,,,0.00,weatherlink.com 1.10,2013-04-28 00:24:00,
2013-04-27 19:39:00,70.3,42.0,29.90,East,85,0.0,3.0,36,0.00,,,0.00,weatherlink.com 1.10,2013-04-28 00:39:00,
2013-04-27 19:54:00,68.7,43.0,29.89,ENE,77,1.0,8.0,40,0.00,,,0.00,weatherlink.com 1.10,2013-04-28 00:54:00,
2013-04-27 20:09:00,67.8,44.0,29.90,NE,52,2.0,3.0,43,0.00,,,0.00,weatherlink.com 1.10,2013-04-28 01:09:00,
2013-04-27 20:24:00,66.4,45.0,29.90,East,80,0.0,2.0,47,0.00,,,0.00,weatherlink.com 1.10,2013-04-28 01:24:00,
2013-04-27 20:39:00,64.8,47.0,29.90,ENE,75,0.0,2.0,52,0.00,,,0.00,weatherlink.com 1.10,2013-04-28 01:39:00,
2013-04-27 20:54:00,63.8,47.0,29.90,ENE,75,0.0,1.0,54,0.00,,,0.00,weatherlink.com 1.10,2013-04-28 01:54:00,
2013-04-27 21:09:00,63.0,47.0,29.90,ENE,65,1.0,2.0,57,0.00,,,0.00,weatherlink.com 1.10,2013-04-28 02:09:00,
2013-04-27 21:24:00,62.2,47.0,29.90,ENE,74,0.0,2.0,58,0.00,,,0.00,weatherlink.com 1.10,2013-04-28 02:24:00,
2013-04-27 21:39:00,61.9,47.0,29.90,ENE,75,0.0,1.0,59,0.00,,,0.00,weatherlink.com 1.10,2013-04-28 02:39:00,
2013-04-27 21:54:00,60.8,47.0,29.90,NE,53,1.0,2.0,60,0.00,,,0.00,weatherlink.com 1.10,2013-04-28 02:54:00,
2013-04-27 22:09:00,59.4,47.0,29.90,ENE,65,0.0,1.0,63,0.00,,,0.00,weatherlink.com 1.10,2013-04-28 03:09:00,
2013-04-27 22:24:00,58.9,48.0,29.90,NE,51,0.0,4.0,67,0.00,,,0.00,weatherlink.com 1.10,2013-04-28 03:24:00,
2013-04-27 22:39:00,58.4,48.0,29.90,NE,53,0.0,5.0,68,0.00,,,0.00,weatherlink.com 1.10,2013-04-28 03:39:00,
2013-04-27 22:54:00,59.4,49.0,29.89,ENE,69,1.0,5.0,68,0.00,,,0.00,weatherlink.com 1.10,2013-04-28 03:54:00,
2013-04-27 23:09:00,59.3,49.0,29.89,NE,48,5.0,5.0,68,0.00,,,0.00,weatherlink.com 1.10,2013-04-28 04:09:00,
2013-04-27 23:24:00,59.3,49.0,29.89,NE,44,2.0,5.0,68,0.00,,,0.00,weatherlink.com 1.10,2013-04-28 04:24:00,
2013-04-27 23:39:00,58.8,48.0,29.89,NE,51,1.0,5.0,68,0.00,,,0.00,weatherlink.com 1.10,2013-04-28 04:39:00,
2013-04-27 23:54:00,58.8,48.0,29.88,NE,51,3.0,5.0,67,0.00,,,0.00,weatherlink.com 1.10,2013-04-28 04:54:00,